This is the latest recevied weather packets stored in our database for station/object OK1LPD-6. If no packets are shown the sender has not sent any weather packets the latest 10 day(s).
| Time | Temp. | Humidity | Pressure | Rain* | Wind** | Luminosity | Snow |
|---|---|---|---|---|---|---|---|
| 1777574086 | 11.67° C | 42% | 1028.6 hPa | 0 mm | - | - | - |
| 1777573486 | 12.78° C | 38% | 1028.4 hPa | 0 mm | - | - | - |
| 1777572906 | 13.33° C | 36% | 1028.4 hPa | 0 mm | - | - | - |
| 1777572287 | 13.89° C | 33% | 1028.2 hPa | 0 mm | - | - | - |
| 1777571688 | 13.89° C | 33% | 1028.2 hPa | 0 mm | - | - | - |
| 1777571104 | 14.44° C | 33% | 1028.2 hPa | 0 mm | - | - | - |
| 1777570487 | 15° C | 32% | 1028.1 hPa | 0 mm | - | - | - |
| 1777569887 | 15.56° C | 31% | 1028 hPa | 0 mm | - | - | - |
| 1777569308 | 16.11° C | 30% | 1028 hPa | 0 mm | - | - | - |
| 1777568687 | 16.67° C | 30% | 1027.9 hPa | 0 mm | - | - | - |
| 1777568087 | 16.67° C | 28% | 1028.1 hPa | 0 mm | - | - | - |
| 1777567504 | 17.22° C | 28% | 1027.8 hPa | 0 mm | - | - | - |
| 1777566887 | 17.22° C | 28% | 1027.8 hPa | 0 mm | - | - | - |
| 1777566287 | 17.22° C | 28% | 1028.1 hPa | 0 mm | - | - | - |
| 1777565707 | 17.22° C | 28% | 1028 hPa | 0 mm | - | - | - |
| 1777565087 | 17.22° C | 28% | 1028.3 hPa | 0 mm | - | - | - |
| 1777564487 | 17.22° C | 28% | 1028.3 hPa | 0 mm | - | - | - |
| 1777563904 | 17.78° C | 24% | 1028.2 hPa | 0 mm | - | - | - |
| 1777563287 | 17.22° C | 28% | 1028.4 hPa | 0 mm | - | - | - |
| 1777562687 | 17.78° C | 22% | 1028.5 hPa | 0 mm | - | - | - |
| 1777562110 | 18.33° C | 22% | 1028.5 hPa | 0 mm | - | - | - |
| 1777561488 | 16.67° C | 24% | 1028.7 hPa | 0 mm | - | - | - |
| 1777560888 | 17.22° C | 24% | 1028.9 hPa | 0 mm | - | - | - |
| 1777560305 | 16.67° C | 26% | 1029 hPa | 0 mm | - | - | - |
| 1777559688 | 16.67° C | 24% | 1029 hPa | 0 mm | - | - | - |
* Rain latest hour (hover to see other rain measurements)
** Current wind speed in m/s (hover to see current wind gust speed)